sensor_id;sensor_type;location;lat;lon;timestamp;P1;durP1;ratioP1;P2;durP2;ratioP2
42096;SDS011;27754;45.414;11.084;2022-12-29T00:02:00;36.50;;;21.23;;
42096;SDS011;27754;45.414;11.084;2022-12-29T00:04:27;31.08;;;20.83;;
42096;SDS011;27754;45.414;11.084;2022-12-29T00:06:54;32.85;;;20.75;;
42096;SDS011;27754;45.414;11.084;2022-12-29T00:09:21;30.15;;;20.05;;
42096;SDS011;27754;45.414;11.084;2022-12-29T00:11:48;32.83;;;20.63;;
42096;SDS011;27754;45.414;11.084;2022-12-29T00:14:16;36.00;;;21.45;;
42096;SDS011;27754;45.414;11.084;2022-12-29T00:17:02;31.35;;;21.20;;
42096;SDS011;27754;45.414;11.084;2022-12-29T00:19:29;31.35;;;20.88;;
42096;SDS011;27754;45.414;11.084;2022-12-29T00:22:15;32.47;;;21.38;;
42096;SDS011;27754;45.414;11.084;2022-12-29T00:25:00;33.42;;;21.75;;
42096;SDS011;27754;45.414;11.084;2022-12-29T00:27:47;36.17;;;21.30;;
42096;SDS011;27754;45.414;11.084;2022-12-29T00:33:21;36.78;;;21.40;;
42096;SDS011;27754;45.414;11.084;2022-12-29T00:38:51;33.40;;;21.98;;
42096;SDS011;27754;45.414;11.084;2022-12-29T00:41:43;35.15;;;21.77;;
42096;SDS011;27754;45.414;11.084;2022-12-29T00:44:29;34.97;;;21.80;;
42096;SDS011;27754;45.414;11.084;2022-12-29T00:46:56;32.53;;;20.52;;
42096;SDS011;27754;45.414;11.084;2022-12-29T00:49:23;36.03;;;22.88;;
42096;SDS011;27754;45.414;11.084;2022-12-29T00:54:29;30.42;;;20.83;;
42096;SDS011;27754;45.414;11.084;2022-12-29T00:56:59;32.33;;;20.45;;
42096;SDS011;27754;45.414;11.084;2022-12-29T00:59:28;31.77;;;19.83;;
42096;SDS011;27754;45.414;11.084;2022-12-29T01:01:56;32.70;;;20.52;;
42096;SDS011;27754;45.414;11.084;2022-12-29T01:04:24;33.65;;;19.77;;
42096;SDS011;27754;45.414;11.084;2022-12-29T01:06:52;30.25;;;19.58;;
42096;SDS011;27754;45.414;11.084;2022-12-29T01:09:19;29.75;;;20.58;;
42096;SDS011;27754;45.414;11.084;2022-12-29T01:12:06;32.72;;;19.60;;
42096;SDS011;27754;45.414;11.084;2022-12-29T01:14:35;32.00;;;21.33;;
42096;SDS011;27754;45.414;11.084;2022-12-29T01:17:03;34.38;;;20.45;;
42096;SDS011;27754;45.414;11.084;2022-12-29T01:19:31;32.83;;;22.00;;
42096;SDS011;27754;45.414;11.084;2022-12-29T01:21:59;34.42;;;22.45;;
42096;SDS011;27754;45.414;11.084;2022-12-29T01:24:27;38.13;;;22.08;;
42096;SDS011;27754;45.414;11.084;2022-12-29T01:26:54;35.50;;;22.55;;
42096;SDS011;27754;45.414;11.084;2022-12-29T01:29:21;32.55;;;21.38;;
42096;SDS011;27754;45.414;11.084;2022-12-29T01:31:48;35.42;;;23.13;;
42096;SDS011;27754;45.414;11.084;2022-12-29T01:34:16;39.30;;;24.25;;
42096;SDS011;27754;45.414;11.084;2022-12-29T01:36:44;38.88;;;23.73;;
42096;SDS011;27754;45.414;11.084;2022-12-29T01:39:12;32.83;;;21.95;;
42096;SDS011;27754;45.414;11.084;2022-12-29T01:41:39;35.97;;;23.02;;
42096;SDS011;27754;45.414;11.084;2022-12-29T01:47:14;35.45;;;21.30;;
42096;SDS011;27754;45.414;11.084;2022-12-29T01:49:58;34.30;;;21.23;;
42096;SDS011;27754;45.414;11.084;2022-12-29T01:52:29;32.38;;;22.33;;
42096;SDS011;27754;45.414;11.084;2022-12-29T01:55:01;34.67;;;21.85;;
42096;SDS011;27754;45.414;11.084;2022-12-29T01:57:31;37.17;;;21.02;;
42096;SDS011;27754;45.414;11.084;2022-12-29T02:00:03;33.25;;;22.25;;
42096;SDS011;27754;45.414;11.084;2022-12-29T02:02:40;30.90;;;20.23;;
42096;SDS011;27754;45.414;11.084;2022-12-29T02:05:11;29.60;;;20.17;;
42096;SDS011;27754;45.414;11.084;2022-12-29T02:07:44;33.30;;;21.98;;
42096;SDS011;27754;45.414;11.084;2022-12-29T02:10:13;31.80;;;21.00;;
42096;SDS011;27754;45.414;11.084;2022-12-29T02:12:40;32.53;;;21.75;;
42096;SDS011;27754;45.414;11.084;2022-12-29T02:15:07;34.85;;;21.27;;
42096;SDS011;27754;45.414;11.084;2022-12-29T02:23:02;31.75;;;20.77;;
42096;SDS011;27754;45.414;11.084;2022-12-29T02:31:31;38.15;;;20.77;;
42096;SDS011;27754;45.414;11.084;2022-12-29T02:34:35;32.08;;;21.05;;
42096;SDS011;27754;45.414;11.084;2022-12-29T02:40:14;27.13;;;18.58;;
42096;SDS011;27754;45.414;11.084;2022-12-29T02:42:49;29.60;;;19.25;;
42096;SDS011;27754;45.414;11.084;2022-12-29T02:51:10;29.58;;;18.83;;
42096;SDS011;27754;45.414;11.084;2022-12-29T02:53:44;31.10;;;20.33;;
42096;SDS011;27754;45.414;11.084;2022-12-29T02:56:31;29.10;;;19.08;;
42096;SDS011;27754;45.414;11.084;2022-12-29T02:58:58;29.92;;;19.48;;
42096;SDS011;27754;45.414;11.084;2022-12-29T03:04:40;31.98;;;19.75;;
42096;SDS011;27754;45.414;11.084;2022-12-29T03:15:45;31.27;;;19.55;;
42096;SDS011;27754;45.414;11.084;2022-12-29T03:18:41;29.25;;;19.65;;
42096;SDS011;27754;45.414;11.084;2022-12-29T03:24:17;28.88;;;19.00;;
42096;SDS011;27754;45.414;11.084;2022-12-29T03:26:48;29.30;;;18.98;;
42096;SDS011;27754;45.414;11.084;2022-12-29T03:29:19;30.48;;;19.13;;
42096;SDS011;27754;45.414;11.084;2022-12-29T03:31:48;30.48;;;19.63;;
42096;SDS011;27754;45.414;11.084;2022-12-29T03:34:17;29.00;;;19.38;;
42096;SDS011;27754;45.414;11.084;2022-12-29T03:36:55;31.88;;;19.80;;
42096;SDS011;27754;45.414;11.084;2022-12-29T03:39:27;32.15;;;19.75;;
42096;SDS011;27754;45.414;11.084;2022-12-29T03:41:56;29.55;;;19.30;;
42096;SDS011;27754;45.414;11.084;2022-12-29T03:44:33;29.27;;;19.33;;
42096;SDS011;27754;45.414;11.084;2022-12-29T03:47:03;33.35;;;20.73;;
42096;SDS011;27754;45.414;11.084;2022-12-29T03:49:30;38.30;;;20.02;;
42096;SDS011;27754;45.414;11.084;2022-12-29T03:51:57;29.80;;;18.52;;
42096;SDS011;27754;45.414;11.084;2022-12-29T03:54:26;35.17;;;19.77;;
42096;SDS011;27754;45.414;11.084;2022-12-29T03:56:53;31.20;;;19.40;;
42096;SDS011;27754;45.414;11.084;2022-12-29T03:59:31;27.48;;;19.58;;
42096;SDS011;27754;45.414;11.084;2022-12-29T04:01:57;28.67;;;19.77;;
42096;SDS011;27754;45.414;11.084;2022-12-29T04:04:26;27.30;;;18.38;;
42096;SDS011;27754;45.414;11.084;2022-12-29T04:06:53;28.38;;;18.63;;
42096;SDS011;27754;45.414;11.084;2022-12-29T04:09:20;29.75;;;18.85;;
42096;SDS011;27754;45.414;11.084;2022-12-29T04:11:48;29.67;;;18.63;;
42096;SDS011;27754;45.414;11.084;2022-12-29T04:14:17;28.33;;;17.67;;
42096;SDS011;27754;45.414;11.084;2022-12-29T04:16:44;26.35;;;17.60;;
42096;SDS011;27754;45.414;11.084;2022-12-29T04:19:10;25.30;;;17.05;;
42096;SDS011;27754;45.414;11.084;2022-12-29T04:21:37;26.05;;;17.67;;
42096;SDS011;27754;45.414;11.084;2022-12-29T04:24:05;31.42;;;18.50;;
42096;SDS011;27754;45.414;11.084;2022-12-29T04:26:37;30.05;;;18.80;;
42096;SDS011;27754;45.414;11.084;2022-12-29T04:29:25;29.55;;;18.08;;
42096;SDS011;27754;45.414;11.084;2022-12-29T04:32:05;24.15;;;17.20;;
42096;SDS011;27754;45.414;11.084;2022-12-29T04:34:36;24.27;;;16.60;;
42096;SDS011;27754;45.414;11.084;2022-12-29T04:37:03;31.55;;;17.73;;
42096;SDS011;27754;45.414;11.084;2022-12-29T04:39:30;26.90;;;17.90;;
42096;SDS011;27754;45.414;11.084;2022-12-29T04:41:58;24.10;;;17.58;;
42096;SDS011;27754;45.414;11.084;2022-12-29T04:44:25;27.52;;;18.02;;
42096;SDS011;27754;45.414;11.084;2022-12-29T04:47:18;25.65;;;17.88;;
42096;SDS011;27754;45.414;11.084;2022-12-29T04:49:58;29.75;;;19.30;;
42096;SDS011;27754;45.414;11.084;2022-12-29T04:52:31;29.15;;;18.50;;
42096;SDS011;27754;45.414;11.084;2022-12-29T04:54:58;29.00;;;18.40;;
42096;SDS011;27754;45.414;11.084;2022-12-29T04:57:26;26.55;;;17.80;;
42096;SDS011;27754;45.414;11.084;2022-12-29T04:59:56;27.58;;;19.05;;
42096;SDS011;27754;45.414;11.084;2022-12-29T05:02:23;29.25;;;19.30;;
42096;SDS011;27754;45.414;11.084;2022-12-29T05:04:51;29.60;;;18.33;;
42096;SDS011;27754;45.414;11.084;2022-12-29T05:07:18;32.40;;;19.08;;
42096;SDS011;27754;45.414;11.084;2022-12-29T05:09:46;30.33;;;20.10;;
42096;SDS011;27754;45.414;11.084;2022-12-29T05:12:14;29.05;;;19.52;;
42096;SDS011;27754;45.414;11.084;2022-12-29T05:14:58;30.48;;;19.92;;
42096;SDS011;27754;45.414;11.084;2022-12-29T05:17:25;30.10;;;19.50;;
42096;SDS011;27754;45.414;11.084;2022-12-29T05:19:53;30.85;;;20.40;;
42096;SDS011;27754;45.414;11.084;2022-12-29T05:22:21;36.28;;;20.70;;
42096;SDS011;27754;45.414;11.084;2022-12-29T05:24:49;30.73;;;20.35;;
42096;SDS011;27754;45.414;11.084;2022-12-29T05:27:16;28.42;;;18.95;;
42096;SDS011;27754;45.414;11.084;2022-12-29T05:29:53;26.13;;;18.02;;
42096;SDS011;27754;45.414;11.084;2022-12-29T05:32:20;29.05;;;18.98;;
42096;SDS011;27754;45.414;11.084;2022-12-29T05:34:48;31.77;;;19.05;;
42096;SDS011;27754;45.414;11.084;2022-12-29T05:37:16;27.88;;;18.85;;
42096;SDS011;27754;45.414;11.084;2022-12-29T05:39:44;27.77;;;19.00;;
42096;SDS011;27754;45.414;11.084;2022-12-29T05:42:12;26.45;;;19.67;;
42096;SDS011;27754;45.414;11.084;2022-12-29T05:45:07;28.40;;;19.33;;
42096;SDS011;27754;45.414;11.084;2022-12-29T05:48:03;28.60;;;18.80;;
42096;SDS011;27754;45.414;11.084;2022-12-29T05:50:48;29.10;;;17.60;;
42096;SDS011;27754;45.414;11.084;2022-12-29T05:53:21;31.52;;;19.15;;
42096;SDS011;27754;45.414;11.084;2022-12-29T05:55:48;27.33;;;18.55;;
42096;SDS011;27754;45.414;11.084;2022-12-29T05:58:16;27.38;;;18.90;;
42096;SDS011;27754;45.414;11.084;2022-12-29T06:00:43;25.73;;;18.48;;
42096;SDS011;27754;45.414;11.084;2022-12-29T06:03:11;27.77;;;18.42;;
42096;SDS011;27754;45.414;11.084;2022-12-29T06:05:38;30.10;;;19.05;;
42096;SDS011;27754;45.414;11.084;2022-12-29T06:08:05;27.30;;;18.38;;
42096;SDS011;27754;45.414;11.084;2022-12-29T06:10:33;28.13;;;18.48;;
42096;SDS011;27754;45.414;11.084;2022-12-29T06:13:03;27.23;;;17.52;;
42096;SDS011;27754;45.414;11.084;2022-12-29T06:15:35;26.10;;;17.63;;
42096;SDS011;27754;45.414;11.084;2022-12-29T06:18:05;26.35;;;16.98;;
42096;SDS011;27754;45.414;11.084;2022-12-29T06:20:33;27.85;;;18.88;;
42096;SDS011;27754;45.414;11.084;2022-12-29T06:23:02;27.83;;;18.83;;
42096;SDS011;27754;45.414;11.084;2022-12-29T06:25:30;29.60;;;19.17;;
42096;SDS011;27754;45.414;11.084;2022-12-29T06:27:58;27.33;;;18.98;;
42096;SDS011;27754;45.414;11.084;2022-12-29T06:30:26;30.63;;;20.75;;
42096;SDS011;27754;45.414;11.084;2022-12-29T06:32:53;31.33;;;19.67;;
42096;SDS011;27754;45.414;11.084;2022-12-29T06:35:22;31.40;;;20.58;;
42096;SDS011;27754;45.414;11.084;2022-12-29T06:37:50;26.50;;;18.05;;
42096;SDS011;27754;45.414;11.084;2022-12-29T06:40:18;25.52;;;18.48;;
42096;SDS011;27754;45.414;11.084;2022-12-29T06:43:06;27.55;;;18.73;;
42096;SDS011;27754;45.414;11.084;2022-12-29T06:45:47;28.05;;;19.00;;
42096;SDS011;27754;45.414;11.084;2022-12-29T06:48:14;30.30;;;20.40;;
42096;SDS011;27754;45.414;11.084;2022-12-29T06:50:40;30.95;;;19.58;;
42096;SDS011;27754;45.414;11.084;2022-12-29T06:53:07;32.30;;;19.30;;
42096;SDS011;27754;45.414;11.084;2022-12-29T06:55:34;30.27;;;19.25;;
42096;SDS011;27754;45.414;11.084;2022-12-29T06:58:01;30.17;;;20.02;;
42096;SDS011;27754;45.414;11.084;2022-12-29T07:00:28;30.48;;;21.00;;
42096;SDS011;27754;45.414;11.084;2022-12-29T07:02:55;36.10;;;21.55;;
42096;SDS011;27754;45.414;11.084;2022-12-29T07:05:26;34.17;;;20.70;;
42096;SDS011;27754;45.414;11.084;2022-12-29T07:07:58;36.20;;;21.15;;
42096;SDS011;27754;45.414;11.084;2022-12-29T07:10:26;33.70;;;20.95;;
42096;SDS011;27754;45.414;11.084;2022-12-29T07:12:53;37.17;;;22.55;;
42096;SDS011;27754;45.414;11.084;2022-12-29T07:15:20;39.17;;;22.60;;
42096;SDS011;27754;45.414;11.084;2022-12-29T07:17:47;34.47;;;22.25;;
42096;SDS011;27754;45.414;11.084;2022-12-29T07:20:16;35.00;;;22.05;;
42096;SDS011;27754;45.414;11.084;2022-12-29T07:22:48;32.25;;;22.02;;
42096;SDS011;27754;45.414;11.084;2022-12-29T07:25:15;28.48;;;19.08;;
42096;SDS011;27754;45.414;11.084;2022-12-29T07:27:42;33.28;;;20.83;;
42096;SDS011;27754;45.414;11.084;2022-12-29T07:30:09;29.77;;;19.73;;
42096;SDS011;27754;45.414;11.084;2022-12-29T07:32:37;35.65;;;21.60;;
42096;SDS011;27754;45.414;11.084;2022-12-29T07:35:04;32.13;;;20.73;;
42096;SDS011;27754;45.414;11.084;2022-12-29T07:37:31;37.75;;;23.17;;
42096;SDS011;27754;45.414;11.084;2022-12-29T07:39:58;32.80;;;21.08;;
42096;SDS011;27754;45.414;11.084;2022-12-29T07:42:25;34.40;;;21.70;;
42096;SDS011;27754;45.414;11.084;2022-12-29T07:44:52;31.27;;;23.65;;
42096;SDS011;27754;45.414;11.084;2022-12-29T07:47:55;33.97;;;22.02;;
42096;SDS011;27754;45.414;11.084;2022-12-29T07:50:22;35.40;;;21.60;;
42096;SDS011;27754;45.414;11.084;2022-12-29T07:52:49;37.45;;;23.63;;
42096;SDS011;27754;45.414;11.084;2022-12-29T07:55:16;37.25;;;21.90;;
42096;SDS011;27754;45.414;11.084;2022-12-29T07:57:43;41.00;;;23.38;;
42096;SDS011;27754;45.414;11.084;2022-12-29T08:00:10;34.08;;;21.73;;
42096;SDS011;27754;45.414;11.084;2022-12-29T08:02:38;32.85;;;20.65;;
42096;SDS011;27754;45.414;11.084;2022-12-29T08:05:05;34.58;;;21.50;;
42096;SDS011;27754;45.414;11.084;2022-12-29T08:07:32;31.52;;;20.15;;
42096;SDS011;27754;45.414;11.084;2022-12-29T08:09:59;34.38;;;20.90;;
42096;SDS011;27754;45.414;11.084;2022-12-29T08:12:27;31.38;;;19.25;;
42096;SDS011;27754;45.414;11.084;2022-12-29T08:14:54;35.53;;;20.50;;
42096;SDS011;27754;45.414;11.084;2022-12-29T08:17:21;32.80;;;20.77;;
42096;SDS011;27754;45.414;11.084;2022-12-29T08:19:48;30.80;;;20.60;;
42096;SDS011;27754;45.414;11.084;2022-12-29T08:22:15;29.77;;;20.00;;
42096;SDS011;27754;45.414;11.084;2022-12-29T08:24:42;36.22;;;22.08;;
42096;SDS011;27754;45.414;11.084;2022-12-29T08:27:09;39.75;;;24.67;;
42096;SDS011;27754;45.414;11.084;2022-12-29T08:29:45;45.75;;;31.20;;
42096;SDS011;27754;45.414;11.084;2022-12-29T08:32:12;38.83;;;25.42;;
42096;SDS011;27754;45.414;11.084;2022-12-29T08:34:39;40.05;;;26.17;;
42096;SDS011;27754;45.414;11.084;2022-12-29T08:37:06;38.28;;;27.30;;
42096;SDS011;27754;45.414;11.084;2022-12-29T08:39:33;37.20;;;24.98;;
42096;SDS011;27754;45.414;11.084;2022-12-29T08:42:00;33.65;;;23.55;;
42096;SDS011;27754;45.414;11.084;2022-12-29T08:44:28;37.08;;;24.00;;
42096;SDS011;27754;45.414;11.084;2022-12-29T08:46:55;38.33;;;23.15;;
42096;SDS011;27754;45.414;11.084;2022-12-29T08:49:22;36.47;;;23.88;;
42096;SDS011;27754;45.414;11.084;2022-12-29T08:51:50;38.00;;;24.83;;
42096;SDS011;27754;45.414;11.084;2022-12-29T08:54:17;36.08;;;22.58;;
42096;SDS011;27754;45.414;11.084;2022-12-29T08:56:44;32.72;;;22.40;;
42096;SDS011;27754;45.414;11.084;2022-12-29T08:59:13;33.65;;;23.13;;
42096;SDS011;27754;45.414;11.084;2022-12-29T09:01:41;33.72;;;21.85;;
42096;SDS011;27754;45.414;11.084;2022-12-29T09:04:08;39.63;;;22.70;;
42096;SDS011;27754;45.414;11.084;2022-12-29T09:06:42;35.40;;;22.35;;
42096;SDS011;27754;45.414;11.084;2022-12-29T09:09:10;37.55;;;24.52;;
42096;SDS011;27754;45.414;11.084;2022-12-29T09:11:38;32.97;;;22.98;;
42096;SDS011;27754;45.414;11.084;2022-12-29T09:14:05;35.85;;;23.92;;
42096;SDS011;27754;45.414;11.084;2022-12-29T09:16:32;41.58;;;24.55;;
42096;SDS011;27754;45.414;11.084;2022-12-29T09:19:00;33.55;;;23.13;;
42096;SDS011;27754;45.414;11.084;2022-12-29T09:21:28;36.15;;;23.45;;
42096;SDS011;27754;45.414;11.084;2022-12-29T09:23:55;35.10;;;24.27;;
42096;SDS011;27754;45.414;11.084;2022-12-29T09:26:23;36.47;;;24.73;;
42096;SDS011;27754;45.414;11.084;2022-12-29T09:28:50;37.08;;;23.30;;
42096;SDS011;27754;45.414;11.084;2022-12-29T09:31:16;40.60;;;25.20;;
42096;SDS011;27754;45.414;11.084;2022-12-29T09:33:44;39.53;;;26.05;;
42096;SDS011;27754;45.414;11.084;2022-12-29T09:36:10;41.50;;;27.73;;
42096;SDS011;27754;45.414;11.084;2022-12-29T09:38:38;41.05;;;25.60;;
42096;SDS011;27754;45.414;11.084;2022-12-29T09:41:06;35.83;;;25.65;;
42096;SDS011;27754;45.414;11.084;2022-12-29T09:46:40;45.58;;;24.40;;
42096;SDS011;27754;45.414;11.084;2022-12-29T09:52:05;40.40;;;26.50;;
42096;SDS011;27754;45.414;11.084;2022-12-29T09:54:45;46.95;;;27.20;;
42096;SDS011;27754;45.414;11.084;2022-12-29T09:57:41;45.20;;;29.75;;
42096;SDS011;27754;45.414;11.084;2022-12-29T10:00:19;42.00;;;28.73;;
42096;SDS011;27754;45.414;11.084;2022-12-29T10:02:49;46.13;;;29.73;;
42096;SDS011;27754;45.414;11.084;2022-12-29T10:14:07;42.67;;;28.63;;
42096;SDS011;27754;45.414;11.084;2022-12-29T10:25:02;50.03;;;32.25;;
42096;SDS011;27754;45.414;11.084;2022-12-29T10:27:53;46.65;;;31.88;;
42096;SDS011;27754;45.414;11.084;2022-12-29T10:30:24;41.92;;;30.08;;
42096;SDS011;27754;45.414;11.084;2022-12-29T10:35:24;44.58;;;30.52;;
42096;SDS011;27754;45.414;11.084;2022-12-29T10:38:03;47.50;;;31.77;;
42096;SDS011;27754;45.414;11.084;2022-12-29T10:43:31;45.35;;;29.58;;
42096;SDS011;27754;45.414;11.084;2022-12-29T10:46:03;44.47;;;29.45;;
42096;SDS011;27754;45.414;11.084;2022-12-29T10:48:36;47.10;;;30.58;;
42096;SDS011;27754;45.414;11.084;2022-12-29T10:51:05;44.33;;;30.38;;
42096;SDS011;27754;45.414;11.084;2022-12-29T10:56:15;46.97;;;30.65;;
42096;SDS011;27754;45.414;11.084;2022-12-29T10:59:07;47.42;;;31.15;;
42096;SDS011;27754;45.414;11.084;2022-12-29T11:06:57;40.70;;;28.40;;
42096;SDS011;27754;45.414;11.084;2022-12-29T11:09:27;47.45;;;29.58;;
42096;SDS011;27754;45.414;11.084;2022-12-29T11:12:22;45.88;;;29.55;;
42096;SDS011;27754;45.414;11.084;2022-12-29T11:20:19;42.35;;;28.30;;
42096;SDS011;27754;45.414;11.084;2022-12-29T11:22:59;41.70;;;28.20;;
42096;SDS011;27754;45.414;11.084;2022-12-29T11:25:27;45.47;;;29.25;;
42096;SDS011;27754;45.414;11.084;2022-12-29T11:30:41;45.55;;;31.00;;
42096;SDS011;27754;45.414;11.084;2022-12-29T11:33:09;47.47;;;31.38;;
42096;SDS011;27754;45.414;11.084;2022-12-29T11:35:38;45.92;;;30.38;;
42096;SDS011;27754;45.414;11.084;2022-12-29T11:38:20;43.83;;;29.13;;
42096;SDS011;27754;45.414;11.084;2022-12-29T11:40:51;42.80;;;29.17;;
42096;SDS011;27754;45.414;11.084;2022-12-29T11:43:23;45.67;;;30.75;;
42096;SDS011;27754;45.414;11.084;2022-12-29T11:45:54;43.08;;;28.45;;
42096;SDS011;27754;45.414;11.084;2022-12-29T11:48:23;39.30;;;28.38;;
42096;SDS011;27754;45.414;11.084;2022-12-29T11:50:54;41.13;;;29.15;;
42096;SDS011;27754;45.414;11.084;2022-12-29T11:56:08;43.90;;;29.08;;
42096;SDS011;27754;45.414;11.084;2022-12-29T11:58:46;49.25;;;32.35;;
42096;SDS011;27754;45.414;11.084;2022-12-29T12:01:17;48.08;;;31.30;;
42096;SDS011;27754;45.414;11.084;2022-12-29T12:04:06;48.95;;;31.23;;
42096;SDS011;27754;45.414;11.084;2022-12-29T12:07:08;46.75;;;31.38;;
42096;SDS011;27754;45.414;11.084;2022-12-29T12:12:34;43.78;;;31.15;;
42096;SDS011;27754;45.414;11.084;2022-12-29T12:15:23;47.95;;;31.98;;
42096;SDS011;27754;45.414;11.084;2022-12-29T12:18:45;47.83;;;32.58;;
42096;SDS011;27754;45.414;11.084;2022-12-29T12:21:25;51.13;;;32.83;;
42096;SDS011;27754;45.414;11.084;2022-12-29T12:35:13;47.15;;;30.73;;
42096;SDS011;27754;45.414;11.084;2022-12-29T12:37:55;47.78;;;31.10;;
42096;SDS011;27754;45.414;11.084;2022-12-29T12:46:18;46.10;;;30.67;;
42096;SDS011;27754;45.414;11.084;2022-12-29T12:49:11;48.28;;;30.27;;
42096;SDS011;27754;45.414;11.084;2022-12-29T12:54:42;47.65;;;30.17;;
42096;SDS011;27754;45.414;11.084;2022-12-29T12:57:36;47.47;;;32.42;;
42096;SDS011;27754;45.414;11.084;2022-12-29T13:00:25;49.53;;;31.65;;
42096;SDS011;27754;45.414;11.084;2022-12-29T13:12:32;46.58;;;32.20;;
42096;SDS011;27754;45.414;11.084;2022-12-29T13:17:57;46.67;;;32.17;;
42096;SDS011;27754;45.414;11.084;2022-12-29T13:26:04;46.38;;;31.83;;
42096;SDS011;27754;45.414;11.084;2022-12-29T13:29:11;54.30;;;30.67;;
42096;SDS011;27754;45.414;11.084;2022-12-29T13:38:14;46.17;;;31.85;;
42096;SDS011;27754;45.414;11.084;2022-12-29T13:40:48;45.05;;;31.15;;
42096;SDS011;27754;45.414;11.084;2022-12-29T13:43:20;69.03;;;44.47;;
42096;SDS011;27754;45.414;11.084;2022-12-29T13:45:50;55.60;;;36.50;;
42096;SDS011;27754;45.414;11.084;2022-12-29T13:48:26;68.60;;;42.83;;
42096;SDS011;27754;45.414;11.084;2022-12-29T13:51:02;52.75;;;34.33;;
42096;SDS011;27754;45.414;11.084;2022-12-29T13:56:18;50.13;;;33.53;;
42096;SDS011;27754;45.414;11.084;2022-12-29T13:58:53;49.25;;;32.63;;
42096;SDS011;27754;45.414;11.084;2022-12-29T14:01:34;47.75;;;32.72;;
42096;SDS011;27754;45.414;11.084;2022-12-29T14:04:28;46.90;;;30.95;;
42096;SDS011;27754;45.414;11.084;2022-12-29T14:07:00;51.25;;;34.00;;
42096;SDS011;27754;45.414;11.084;2022-12-29T14:14:55;50.88;;;34.05;;
42096;SDS011;27754;45.414;11.084;2022-12-29T14:17:41;51.67;;;35.70;;
42096;SDS011;27754;45.414;11.084;2022-12-29T14:20:17;49.15;;;34.25;;
42096;SDS011;27754;45.414;11.084;2022-12-29T14:22:58;53.63;;;37.65;;
42096;SDS011;27754;45.414;11.084;2022-12-29T14:25:56;57.15;;;36.83;;
42096;SDS011;27754;45.414;11.084;2022-12-29T14:28:33;54.50;;;36.90;;
42096;SDS011;27754;45.414;11.084;2022-12-29T14:39:32;53.33;;;35.63;;
42096;SDS011;27754;45.414;11.084;2022-12-29T14:44:48;52.47;;;35.95;;
42096;SDS011;27754;45.414;11.084;2022-12-29T14:47:19;54.30;;;36.95;;
42096;SDS011;27754;45.414;11.084;2022-12-29T14:49:47;54.10;;;36.22;;
42096;SDS011;27754;45.414;11.084;2022-12-29T14:54:59;56.08;;;36.95;;
42096;SDS011;27754;45.414;11.084;2022-12-29T14:57:53;56.17;;;38.63;;
42096;SDS011;27754;45.414;11.084;2022-12-29T15:00:30;56.17;;;37.95;;
42096;SDS011;27754;45.414;11.084;2022-12-29T15:03:04;55.75;;;38.55;;
42096;SDS011;27754;45.414;11.084;2022-12-29T15:05:50;61.05;;;40.83;;
42096;SDS011;27754;45.414;11.084;2022-12-29T15:08:24;60.58;;;39.40;;
42096;SDS011;27754;45.414;11.084;2022-12-29T15:11:01;63.75;;;40.28;;
42096;SDS011;27754;45.414;11.084;2022-12-29T15:13:37;53.85;;;37.67;;
42096;SDS011;27754;45.414;11.084;2022-12-29T15:16:21;58.17;;;38.35;;
42096;SDS011;27754;45.414;11.084;2022-12-29T15:18:51;59.03;;;40.00;;
42096;SDS011;27754;45.414;11.084;2022-12-29T15:21:21;65.18;;;39.25;;
42096;SDS011;27754;45.414;11.084;2022-12-29T15:23:57;61.38;;;40.70;;
42096;SDS011;27754;45.414;11.084;2022-12-29T15:26:41;62.58;;;40.72;;
42096;SDS011;27754;45.414;11.084;2022-12-29T15:34:52;66.95;;;42.92;;
42096;SDS011;27754;45.414;11.084;2022-12-29T15:37:23;65.15;;;41.08;;
42096;SDS011;27754;45.414;11.084;2022-12-29T15:39:55;66.95;;;41.55;;
42096;SDS011;27754;45.414;11.084;2022-12-29T15:45:16;64.47;;;41.25;;
42096;SDS011;27754;45.414;11.084;2022-12-29T15:47:44;64.75;;;41.65;;
42096;SDS011;27754;45.414;11.084;2022-12-29T15:50:17;63.95;;;40.65;;
42096;SDS011;27754;45.414;11.084;2022-12-29T15:52:54;65.47;;;41.80;;
42096;SDS011;27754;45.414;11.084;2022-12-29T15:55:32;70.57;;;43.10;;
42096;SDS011;27754;45.414;11.084;2022-12-29T15:58:03;94.13;;;60.80;;
42096;SDS011;27754;45.414;11.084;2022-12-29T16:00:32;94.80;;;60.72;;
42096;SDS011;27754;45.414;11.084;2022-12-29T16:03:01;76.18;;;52.40;;
42096;SDS011;27754;45.414;11.084;2022-12-29T16:05:34;67.30;;;44.35;;
42096;SDS011;27754;45.414;11.084;2022-12-29T16:08:03;63.17;;;41.75;;
42096;SDS011;27754;45.414;11.084;2022-12-29T16:10:46;71.28;;;41.72;;
42096;SDS011;27754;45.414;11.084;2022-12-29T16:13:19;69.75;;;42.30;;
42096;SDS011;27754;45.414;11.084;2022-12-29T16:16:01;68.32;;;41.38;;
42096;SDS011;27754;45.414;11.084;2022-12-29T16:18:35;67.15;;;39.92;;
42096;SDS011;27754;45.414;11.084;2022-12-29T16:21:04;70.57;;;40.40;;
42096;SDS011;27754;45.414;11.084;2022-12-29T16:23:38;70.80;;;41.17;;
42096;SDS011;27754;45.414;11.084;2022-12-29T16:26:05;66.72;;;41.05;;
42096;SDS011;27754;45.414;11.084;2022-12-29T16:28:44;71.57;;;41.28;;
42096;SDS011;27754;45.414;11.084;2022-12-29T16:31:18;67.70;;;41.63;;
42096;SDS011;27754;45.414;11.084;2022-12-29T16:33:47;66.40;;;41.53;;
42096;SDS011;27754;45.414;11.084;2022-12-29T16:36:22;62.88;;;38.28;;
42096;SDS011;27754;45.414;11.084;2022-12-29T16:41:48;66.18;;;39.72;;
42096;SDS011;27754;45.414;11.084;2022-12-29T16:44:17;70.38;;;40.50;;
42096;SDS011;27754;45.414;11.084;2022-12-29T16:49:31;73.40;;;44.35;;
42096;SDS011;27754;45.414;11.084;2022-12-29T16:51:59;68.88;;;41.67;;
42096;SDS011;27754;45.414;11.084;2022-12-29T16:54:33;69.70;;;41.95;;
42096;SDS011;27754;45.414;11.084;2022-12-29T16:57:03;66.90;;;39.70;;
42096;SDS011;27754;45.414;11.084;2022-12-29T17:02:14;79.65;;;49.75;;
42096;SDS011;27754;45.414;11.084;2022-12-29T17:04:45;66.13;;;39.13;;
42096;SDS011;27754;45.414;11.084;2022-12-29T17:07:16;61.67;;;39.08;;
42096;SDS011;27754;45.414;11.084;2022-12-29T17:09:44;71.35;;;43.85;;
42096;SDS011;27754;45.414;11.084;2022-12-29T17:12:18;78.97;;;47.45;;
42096;SDS011;27754;45.414;11.084;2022-12-29T17:14:48;64.28;;;36.78;;
42096;SDS011;27754;45.414;11.084;2022-12-29T17:17:34;56.92;;;34.90;;
42096;SDS011;27754;45.414;11.084;2022-12-29T17:20:18;63.90;;;39.72;;
42096;SDS011;27754;45.414;11.084;2022-12-29T17:22:50;61.50;;;37.27;;
42096;SDS011;27754;45.414;11.084;2022-12-29T17:28:00;61.42;;;37.33;;
42096;SDS011;27754;45.414;11.084;2022-12-29T17:30:49;62.35;;;37.20;;
42096;SDS011;27754;45.414;11.084;2022-12-29T17:33:18;61.03;;;36.95;;
42096;SDS011;27754;45.414;11.084;2022-12-29T17:35:46;64.40;;;38.20;;
42096;SDS011;27754;45.414;11.084;2022-12-29T17:38:28;63.70;;;38.13;;
42096;SDS011;27754;45.414;11.084;2022-12-29T17:40:57;71.38;;;40.90;;
42096;SDS011;27754;45.414;11.084;2022-12-29T17:43:24;67.85;;;41.15;;